Rossiya A148 at Arkhangelsk on Jan 17th 2014, landing bump, overhead bin and passenger

Last Update: January 17, 2014 / 22:28:22 GMT/Zulu time

Bookmark this article
Incident Facts

Date of incident
Jan 17, 2014

Classification
Accident

Airline
Rossiya

Flight number
FV-301

Aircraft Registration
RA-61702

Aircraft Type
Antonov An-148

ICAO Type Designator
A148

Airport ICAO Code
ULAA

A Rossiya Antonov AN-148, registration RA-61702 performing flight FV-301 from St. Petersburg to Arkhangelsk (Russia), landed harder than usual on Arkhangelsk's runway 08 causing the door of a luggage overhead locker to open and release a bag which fell onto the head of the passenger underneath. The aircraft rolled out without further incident, the passenger received minor injuries, suspected to be a concussion, and was taken to a hospital.

The aircraft was able to depart for the return flight FV-302 with a delay of one hour and reached St. Petersburg with 30 minutes delay.

Metars:
ULAA 170900Z VRB01MPS 9999 SCT020 BKN/// M19/M21 Q1026 TEMPO 0300 FZFG BKN002 RMK QFE768/1024 SC050
ULAA 170830Z 05001MPS 9999 SCT020 BKN/// M19/M21 Q1026 NOSIG RMK QFE768/1024 SC050
ULAA 170800Z 03002MPS 9999 OVC008 M19/M21 Q1026 NOSIG RMK QFE768/1025 SC050
ULAA 170730Z VRB01MPS 9999 OVC011 M19/M21 Q1026 NOSIG RMK QFE768/1025 SC050
ULAA 170700Z 36002MPS 9999 OVC008 M19/M21 Q1026 NOSIG RMK QFE768/1024 SC050
ULAA 170630Z VRB01MPS 9999 OVC010 M18/M20 Q1025 TEMPO 0500 FZFG BKN002 RMK QFE768/1024 SC050
ULAA 170600Z 01001MPS 9999 OVC010 M18/M20 Q1025 TEMPO 0400 FZFG BKN002 RMK QFE768/1024 SC050
ULAA 170530Z 02001MPS 9999 BKN008 M18/M20 Q1025 TEMPO 0400 FZFG BKN002 RMK QFE768/1024 SC050
ULAA 170500Z 00000MPS 9999 BKN015 M18/M20 Q1025 TEMPO 0400 FZFG BKN002 RMK QFE767/1023 SC050
ULAA 170430Z 00000MPS 9999 BKN026 BKN/// M18/M20 Q1025 TEMPO 0400 FZFG BKN002 RMK QFE767/1023 SC050
ULAA 170400Z 04002MPS 9999 SCT010 BKN/// M18/M19 Q1025 NOSIG RMK QFE767/1023 SC050
Aircraft Registration Data New!
Registration mark
RA-61702
Country of Registration
Russia
Date of Registration
Inkficedhfiilgqi Subscribe to unlock
Certification Basis
Manufacturer
Aircraft Model / Type
An-148-100V
ICAO Aircraft Type
A148
Serial Number
Engine Count
Incident Facts

Date of incident
Jan 17, 2014

Classification
Accident

Airline
Rossiya

Flight number
FV-301

Aircraft Registration
RA-61702

Aircraft Type
Antonov An-148

ICAO Type Designator
A148

Airport ICAO Code
ULAA

This article is published under license from Avherald.com. © of text by Avherald.com.
Article source

You can read 4 more free articles without a subscription.

Subscribe now and continue reading without any limits!

Are you a subscriber?
Login
Subscribe

Read unlimited articles and receive our daily update briefing. Gain better insights into what is happening in commercial aviation safety.

Free newsletter

Want to know more and stay ahead? Get our free weekly newsletter and join 4933 existing subscribers.

By subscribing, you accept our terms and conditions and confirm that you've read our privacy policy.

Send tip

Support AeroInside by sending a small tip amount.

Related articles

Newest articles

Subscribe today

Are you researching aviation incidents? Get access to AeroInside Insights, unlimited read access and receive the daily newsletter.

Pick your plan and subscribe

Partner

Blockaviation logo

A new way to document and demonstrate airworthiness compliance and aircraft value. Find out more.

Virtual Speech logo

ELITE Simulation Solutions is a leading global provider of Flight Simulation Training Devices, IFR training software as well as flight controls and related services. Find out more.

Get updates

Never miss an article from AeroInside. Subscribe to our free weekly newsletter and join 4933 existing subscribers.

By subscribing, you accept our terms and conditions and that you've read our privacy policy.

AeroInside Blog
Popular aircraft
Airbus A320
Boeing 737-800
Boeing 737-800 MAX
Popular airlines
American Airlines
United
Delta
Air Canada
Lufthansa
British Airways